City of Colorado Springs Municipal Airport
KCOS : now visible

Aeroporto :











RITROVATECI SU...

 
LOGIN :

Iscrizione | Disclaimer

   EN    FR    IT 

 









Sommario :    VFR   VFR Marginale   IFR   IFR Intensivo   IFR Molto Intensivo
Visibilità : 
Base nubi : 
>= 8 km
>= 3000ft
5 / 8 km
1000 / 3000 ft
1500m / 5 km
500 / 1000 ft
800 / 1500m
200 / 500 ft
< 800m
< 200 ft
Simboli :   Temporali  Nebbia  Neve Forte  Precipitazioni Forti  Vento > 20 kt






- Altitudine del aeroporto : 6187 ft
- Codice IATA : COS


KCOS - City of Colorado Springs Municipal

ULTIMO METAR :
  • 200954Z 20005KT 10SM SCT038 M09/M14 A3043 RMK AO2 SLP372 T10891144

METARs OBSOLETI :
  • 200854Z 31006KT 10SM BKN055 OVC070 M08/M14 A3042 RMK AO2 SLP365 T10781144 51010
  • 200754Z 34011KT 10SM OVC038 M08/M14 A3042 RMK AO2 SLP364 T10781144

TAF KCOS
Valido dal 20 a 06 ore il 21 a 06 ore UTC


200536Z 2006/2106 35012KT 6SM BR VCSH SCT025 OVC050
FM201200 17005KT P6SM FEW030 SCT050
FM210100 12004KT P6SM FEW250



MetMap, La meteo Aeronautica in un colpo d'occhio ! - Copyright ORBIFLY Dicembre 2007 - Disclaimer

ORBIFLY MET'MAP TEAM :

Programmazione e sviluppo : Alexandra Zaïnal
Concezione : Baudouin d'Aumeries
Aiuto per la programmazione : Marc-Olivier Méhu
Supporto tecnico e logistico : Manuel Goepfert
Aiuto per la traduzione : Arnaldo La Scala

Contatto : metmap@orbifly.com




FONTI E CREDITI :

   NOAA       Earth
Advisory